Time;durP1;ratioP1;P1;durP2;ratioP2;P2;SDS_P1;SDS_P2;PMS_P1;PMS_P2;Temp;Humidity;BMP_temperature;BMP_pressure;BME280_temperature;BME280_humidity;BME280_pressure;Samples;Min_cycle;Max_cycle;Signal;HPM_P1;HPM_P2
2023/10/13 00:01:19;;;;;;;;;;;;;;;;;;5094336;28;19934;-72
2023/10/13 00:03:45;;;;;;;;;;;;;;;;;;5094284;28;20349;-72
2023/10/13 00:06:11;;;;;;;;;;;;;;;;;;5093601;28;19953;-72
2023/10/13 00:08:38;;;;;;;;;;;;;;;;;;5094262;28;20288;-72
2023/10/13 00:11:04;;;;;;;;;;;;;;;;;;5093693;28;19916;-73
2023/10/13 00:13:40;;;;;;;;;;;;;;;;;;5094129;28;19999;-72
2023/10/13 00:16:09;;;;;;;;;;;;;;;;;;5094400;28;20409;-72
2023/10/13 00:18:41;;;;;;;;;;;;;;;;;;5093675;28;19908;-72
2023/10/13 00:21:13;;;;;;;;;;;;;;;;;;5094339;28;19908;-73
2023/10/13 00:23:39;;;;;;;;;;;;;;;;;;5094060;28;19908;-72
2023/10/13 00:26:09;;;;;;;;;;;;;;;;;;5093680;28;20375;-72
2023/10/13 00:28:35;;;;;;;;;;;;;;;;;;5094120;28;20042;-72
2023/10/13 00:31:05;;;;;;;;;;;;;;;;;;5092460;28;19966;-72
2023/10/13 00:33:37;;;;;;;;;;;;;;;;;;5093601;28;19998;-72
2023/10/13 00:36:04;;;;;;;;;;;;;;;;;;5094012;28;20428;-72
2023/10/13 00:38:30;;;;;;;;;;;;;;;;;;5093890;28;19912;-72
2023/10/13 00:41:03;;;;;;;;;;;;;;;;;;5093495;28;19912;-72
2023/10/13 00:43:34;;;;;;;;;;;;;;;;;;5093926;28;20426;-72
2023/10/13 00:48:32;;;;;;;;;;;;;;;;;;5093406;28;20006;-72
2023/10/13 00:51:02;;;;;;;;;;;;;;;;;;5093703;28;19915;-72
2023/10/13 00:53:28;;;;;;;;;;;;;;;;;;5093387;28;20010;-72
2023/10/13 00:55:57;;;;;;;;;;;;;;;;;;5093651;28;19951;-72
2023/10/13 00:58:25;;;;;;;;;;;;;;;;;;5093857;28;20380;-72
2023/10/13 01:00:56;;;;;;;;;;;;;;;;;;5093407;28;19910;-72
2023/10/13 01:03:26;;;;;;;;;;;;;;;;;;5092368;28;20415;-72
2023/10/13 01:05:54;;;;;;;;;;;;;;;;;;5093626;28;19915;-72
2023/10/13 01:08:23;;;;;;;;;;;;;;;;;;5091925;28;19912;-73
2023/10/13 01:10:49;;;;;;;;;;;;;;;;;;5093480;28;19916;-72
2023/10/13 01:13:17;;;;;;;;;;;;;;;;;;5093633;28;19909;-72
2023/10/13 01:15:44;;;;;;;;;;;;;;;;;;5093318;28;19954;-72
2023/10/13 01:18:13;;;;;;;;;;;;;;;;;;5093989;28;19991;-72
2023/10/13 01:20:52;;;;;;;;;;;;;;;;;;5097469;28;20091;-72
2023/10/13 01:23:24;;;;;;;;;;;;;;;;;;5097007;28;20391;-72
2023/10/13 01:25:50;;;;;;;;;;;;;;;;;;5095983;28;19947;-72
2023/10/13 01:28:16;;;;;;;;;;;;;;;;;;5097098;28;20288;-73
2023/10/13 01:30:42;;;;;;;;;;;;;;;;;;5096793;28;19920;-72
2023/10/13 01:33:10;;;;;;;;;;;;;;;;;;5097049;28;19915;-72
2023/10/13 01:35:41;;;;;;;;;;;;;;;;;;5096723;28;19908;-72
2023/10/13 01:38:08;;;;;;;;;;;;;;;;;;5096998;28;19915;-72
2023/10/13 01:40:34;;;;;;;;;;;;;;;;;;5097132;28;20360;-73
2023/10/13 01:43:00;;;;;;;;;;;;;;;;;;5095159;28;20364;-72
2023/10/13 01:45:29;;;;;;;;;;;;;;;;;;5095614;28;19908;-72
2023/10/13 01:47:55;;;;;;;;;;;;;;;;;;5097078;28;19908;-73
2023/10/13 01:50:28;;;;;;;;;;;;;;;;;;5096345;28;20290;-72
2023/10/13 01:53:12;;;;;;;;;;;;;;;;;;5096833;28;20276;-72
2023/10/13 01:55:42;;;;;;;;;;;;;;;;;;5096805;28;20329;-72
2023/10/13 01:58:14;;;;;;;;;;;;;;;;;;5096080;28;19916;-72
2023/10/13 02:00:41;;;;;;;;;;;;;;;;;;5096566;28;19919;-72
2023/10/13 02:03:15;;;;;;;;;;;;;;;;;;5096470;28;19908;-72
2023/10/13 02:05:44;;;;;;;;;;;;;;;;;;5096132;28;19912;-72
2023/10/13 02:08:17;;;;;;;;;;;;;;;;;;5096483;28;20392;-73
2023/10/13 02:10:43;;;;;;;;;;;;;;;;;;5096103;28;20341;-72
2023/10/13 02:13:15;;;;;;;;;;;;;;;;;;5095067;28;19908;-73
2023/10/13 02:15:42;;;;;;;;;;;;;;;;;;5096779;28;19947;-72
2023/10/13 02:18:09;;;;;;;;;;;;;;;;;;5095844;28;19908;-73
2023/10/13 02:20:41;;;;;;;;;;;;;;;;;;5096397;28;19958;-72
2023/10/13 02:23:10;;;;;;;;;;;;;;;;;;5096255;28;19908;-71
2023/10/13 02:25:42;;;;;;;;;;;;;;;;;;5095692;28;20427;-73
2023/10/13 02:28:13;;;;;;;;;;;;;;;;;;5096124;28;19947;-71
2023/10/13 02:30:39;;;;;;;;;;;;;;;;;;5095745;28;19924;-71
2023/10/13 02:33:06;;;;;;;;;;;;;;;;;;5094256;28;20043;-72
2023/10/13 02:35:41;;;;;;;;;;;;;;;;;;5095897;28;19908;-72
2023/10/13 02:38:11;;;;;;;;;;;;;;;;;;5095950;28;19908;-72
2023/10/13 02:40:37;;;;;;;;;;;;;;;;;;5095427;28;19908;-72
2023/10/13 02:43:04;;;;;;;;;;;;;;;;;;5095761;28;19919;-72
2023/10/13 02:45:30;;;;;;;;;;;;;;;;;;5096063;28;19912;-72
2023/10/13 02:48:17;;;;;;;;;;;;;;;;;;5095305;28;20382;-72
2023/10/13 02:50:44;;;;;;;;;;;;;;;;;;5095633;28;19965;-71
2023/10/13 02:53:12;;;;;;;;;;;;;;;;;;5095246;28;20002;-72
2023/10/13 02:55:39;;;;;;;;;;;;;;;;;;5095645;28;19915;-72
2023/10/13 02:58:05;;;;;;;;;;;;;;;;;;5095610;28;20001;-72
2023/10/13 03:00:31;;;;;;;;;;;;;;;;;;5095098;28;19912;-72
2023/10/13 03:03:01;;;;;;;;;;;;;;;;;;5095384;28;20357;-72
2023/10/13 03:05:31;;;;;;;;;;;;;;;;;;5095342;28;20002;-72
2023/10/13 03:07:58;;;;;;;;;;;;;;;;;;5094919;28;19916;-73
2023/10/13 03:10:28;;;;;;;;;;;;;;;;;;5095257;28;20330;-72
2023/10/13 03:12:54;;;;;;;;;;;;;;;;;;5095628;28;19916;-72
2023/10/13 03:15:28;;;;;;;;;;;;;;;;;;5095120;28;20356;-72
2023/10/13 03:17:54;;;;;;;;;;;;;;;;;;5095623;28;19954;-72
2023/10/13 03:20:33;;;;;;;;;;;;;;;;;;5095049;28;20003;-72
2023/10/13 03:22:59;;;;;;;;;;;;;;;;;;5094656;28;20360;-72
2023/10/13 03:30:21;;;;;;;;;;;;;;;;;;5094685;28;19912;-71
2023/10/13 03:32:49;;;;;;;;;;;;;;;;;;5094778;28;19924;-72
2023/10/13 03:35:24;;;;;;;;;;;;;;;;;;5093145;28;20002;-72
2023/10/13 03:37:50;;;;;;;;;;;;;;;;;;5094900;28;19912;-72
2023/10/13 03:43:30;;;;;;;;;;;;;;;;;;5094733;28;19908;-72
2023/10/13 03:45:40;;;;;;;;;;;;;;;;;;5089056;28;19908;-72
2023/10/13 03:48:09;;;;;;;;;;;;;;;;;;5094558;28;19908;-72
2023/10/13 03:50:36;;;;;;;;;;;;;;;;;;5092795;28;19912;-72
2023/10/13 03:53:02;;;;;;;;;;;;;;;;;;5094452;28;19999;-72
2023/10/13 03:55:34;;;;;;;;;;;;;;;;;;5094611;28;19951;-72
2023/10/13 03:58:00;;;;;;;;;;;;;;;;;;5093964;28;19918;-72
2023/10/13 04:00:31;;;;;;;;;;;;;;;;;;5094651;28;19995;-72
2023/10/13 04:03:08;;;;;;;;;;;;;;;;;;5094579;28;20267;-72
2023/10/13 04:16:50;;;;;;;;;;;;;;;;;;5093958;28;20285;-72
2023/10/13 04:21:56;;;;;;;;;;;;;;;;;;5092052;28;19930;-72
2023/10/13 04:30:10;;;;;;;;;;;;;;;;;;5091975;28;20413;-72
2023/10/13 04:33:05;;;;;;;;;;;;;;;;;;5091163;28;20369;-72
2023/10/13 04:35:34;;;;;;;;;;;;;;;;;;5093728;28;19911;-72
2023/10/13 04:40:26;;;;;;;;;;;;;;;;;;5093478;28;19908;-72
2023/10/13 04:42:57;;;;;;;;;;;;;;;;;;5093923;28;19908;-72
2023/10/13 04:48:13;;;;;;;;;;;;;;;;;;5092879;28;19931;-71
2023/10/13 04:50:45;;;;;;;;;;;;;;;;;;5093546;28;19969;-71
2023/10/13 04:53:27;;;;;;;;;;;;;;;;;;5095160;28;19923;-71
2023/10/13 05:04:38;;;;;;;;;;;;;;;;;;5055421;28;19931;-71
2023/10/13 06:29:35;;;;;;;;;;;;;;;;;;5072972;28;19953;-66
2023/10/13 06:32:01;;;;;;;;;;;;;;;;;;5073527;28;20415;-65
2023/10/13 06:34:37;;;;;;;;;;;;;;;;;;5070963;28;19958;-66
2023/10/13 06:37:03;;;;;;;;;;;;;;;;;;5065576;28;19919;-66
2023/10/13 06:39:35;;;;;;;;;;;;;;;;;;5070966;28;19908;-66
2023/10/13 06:42:02;;;;;;;;;;;;;;;;;;5073813;28;19936;-67
2023/10/13 06:44:32;;;;;;;;;;;;;;;;;;5084645;28;19912;-67
2023/10/13 06:46:58;;;;;;;;;;;;;;;;;;5045675;28;19913;-67
2023/10/13 06:49:23;;;;;;;;;;;;;;;;;;5046039;28;19935;-67
2023/10/13 06:51:49;;;;;;;;;;;;;;;;;;5074292;28;19916;-67
2023/10/13 06:54:21;;;;;;;;;;;;;;;;;;5074585;28;19915;-67
2023/10/13 06:56:51;;;;;;;;;;;;;;;;;;5072532;28;19909;-67
2023/10/13 06:59:17;;;;;;;;;;;;;;;;;;5064937;28;20003;-68
2023/10/13 07:01:44;;;;;;;;;;;;;;;;;;5056077;28;20329;-69
2023/10/13 07:04:14;;;;;;;;;;;;;;;;;;5072395;28;20011;-67
2023/10/13 07:06:42;;;;;;;;;;;;;;;;;;5087952;28;20284;-67
2023/10/13 07:09:15;;;;;;;;;;;;;;;;;;5091497;28;19923;-66
2023/10/13 07:11:42;;;;;;;;;;;;;;;;;;5050328;28;19925;-66
2023/10/13 07:14:16;;;;;;;;;;;;;;;;;;5067295;28;19925;-67
2023/10/13 07:16:43;;;;;;;;;;;;;;;;;;5081050;28;19923;-65
2023/10/13 07:19:09;;;;;;;;;;;;;;;;;;5075875;28;19912;-66
2023/10/13 07:21:45;;;;;;;;;;;;;;;;;;5074669;28;19920;-67
2023/10/13 07:26:02;;;;;;;;;;;;;;;;;;5090577;27;20388;-65
2023/10/13 07:28:28;;;;;;;;;;;;;;;;;;5091451;28;19919;-66
2023/10/13 07:33:20;;;;;;;;;;;;;;;;;;5079279;28;19946;-66
2023/10/13 07:35:51;;;;;;;;;;;;;;;;;;5085660;28;19956;-66
2023/10/13 07:38:17;;;;;;;;;;;;;;;;;;5086759;28;19923;-68
2023/10/13 07:40:53;;;;;;;;;;;;;;;;;;5088093;28;20015;-68
2023/10/13 07:43:22;;;;;;;;;;;;;;;;;;5096198;28;20617;-69
2023/10/13 07:45:58;;;;;;;;;;;;;;;;;;5084406;28;20723;-67
2023/10/13 07:48:25;;;;;;;;;;;;;;;;;;5083717;28;19917;-69
2023/10/13 07:51:57;;;;;;;;;;;;;;;;;;5084573;27;19923;-67
2023/10/13 07:54:22;;;;;;;;;;;;;;;;;;5069948;28;19913;-68
2023/10/13 07:56:49;;;;;;;;;;;;;;;;;;5070015;28;19962;-67
2023/10/13 07:59:15;;;;;;;;;;;;;;;;;;5075835;28;19991;-68
2023/10/13 08:01:45;;;;;;;;;;;;;;;;;;5066783;28;19913;-65
2023/10/13 08:06:36;;;;;;;;;;;;;;;;;;5069683;28;19962;-65
2023/10/13 08:09:09;;;;;;;;;;;;;;;;;;5069355;28;19963;-66
2023/10/13 08:11:35;;;;;;;;;;;;;;;;;;5066284;28;19963;-65
2023/10/13 08:17:00;;;;;;;;;;;;;;;;;;5065954;28;19971;-69
2023/10/13 08:44:39;;;;;;;;;;;;;;;;;;5126061;27;20449;-68
2023/10/13 08:47:05;;;;;;;;;;;;;;;;;;5107324;28;20018;-67
2023/10/13 08:51:43;;;;;;;;;;;;;;;;;;5067838;28;19927;-67
2023/10/13 08:54:18;;;;;;;;;;;;;;;;;;5065340;28;19920;-67
2023/10/13 08:56:54;;;;;;;;;;;;;;;;;;5063924;28;19970;-69
2023/10/13 09:02:17;;;;;;;;;;;;;;;;;;5063545;28;19920;-67
2023/10/13 09:04:44;;;;;;;;;;;;;;;;;;5065813;28;19919;-70
2023/10/13 09:07:15;;;;;;;;;;;;;;;;;;5064852;28;20478;-67
2023/10/13 09:12:13;;;;;;;;;;;;;;;;;;5066127;28;19920;-66
2023/10/13 09:14:44;;;;;;;;;;;;;;;;;;5064268;28;19924;-66
2023/10/13 09:17:34;;;;;;;;;;;;;;;;;;5063942;28;19916;-66
2023/10/13 09:19:55;;;;;;;;;;;;;;;;;;5063660;28;19916;-65
2023/10/13 09:22:27;;;;;;;;;;;;;;;;;;5063885;28;19912;-65
2023/10/13 09:24:53;;;;;;;;;;;;;;;;;;5064523;28;20287;-65
2023/10/13 09:27:19;;;;;;;;;;;;;;;;;;5065000;28;19924;-67
2023/10/13 09:29:52;;;;;;;;;;;;;;;;;;5065438;28;20284;-68
2023/10/13 09:32:20;;;;;;;;;;;;;;;;;;5068080;28;19923;-64
2023/10/13 09:34:48;;;;;;;;;;;;;;;;;;5066711;28;20387;-63
2023/10/13 09:37:20;;;;;;;;;;;;;;;;;;5066761;28;20394;-66
2023/10/13 09:39:48;;;;;;;;;;;;;;;;;;5065838;28;19919;-66
2023/10/13 09:42:17;;;;;;;;;;;;;;;;;;5066067;28;20261;-68
2023/10/13 09:47:18;;;;;;;;;;;;;;;;;;5155370;27;20399;-68
2023/10/13 09:49:51;;;;;;;;;;;;;;;;;;5147813;27;20460;-66
2023/10/13 09:52:20;;;;;;;;;;;;;;;;;;5124551;27;20309;-67
2023/10/13 09:54:48;;;;;;;;;;;;;;;;;;5127352;28;20371;-67
2023/10/13 09:57:16;;;;;;;;;;;;;;;;;;5145078;27;20390;-67
2023/10/13 09:59:47;;;;;;;;;;;;;;;;;;5139791;27;19911;-67
2023/10/13 10:02:20;;;;;;;;;;;;;;;;;;5128989;27;19950;-67
2023/10/13 10:04:51;;;;;;;;;;;;;;;;;;5129030;27;19915;-68
2023/10/13 10:07:19;;;;;;;;;;;;;;;;;;5129731;27;19907;-67
2023/10/13 10:09:45;;;;;;;;;;;;;;;;;;5133542;27;20423;-68
2023/10/13 10:12:11;;;;;;;;;;;;;;;;;;5132690;27;19916;-66
2023/10/13 10:14:41;;;;;;;;;;;;;;;;;;5132173;27;20389;-68
2023/10/13 10:17:10;;;;;;;;;;;;;;;;;;5142127;27;19964;-68
2023/10/13 10:19:36;;;;;;;;;;;;;;;;;;5131296;28;19934;-66
2023/10/13 10:22:16;;;;;;;;;;;;;;;;;;5134336;27;19916;-67
2023/10/13 10:24:42;;;;;;;;;;;;;;;;;;5150018;27;19915;-66
2023/10/13 10:27:08;;;;;;;;;;;;;;;;;;5147843;27;19994;-67
2023/10/13 10:29:34;;;;;;;;;;;;;;;;;;5135110;27;19999;-67
2023/10/13 10:32:00;;;;;;;;;;;;;;;;;;5141313;27;19911;-67
2023/10/13 10:34:26;;;;;;;;;;;;;;;;;;5124023;27;19985;-67
2023/10/13 10:36:52;;;;;;;;;;;;;;;;;;5141261;27;19911;-66
2023/10/13 10:39:18;;;;;;;;;;;;;;;;;;5136108;27;20369;-67
2023/10/13 10:44:15;;;;;;;;;;;;;;;;;;5121706;27;21205;-67
2023/10/13 10:46:51;;;;;;;;;;;;;;;;;;5130263;27;19919;-67
2023/10/13 10:49:27;;;;;;;;;;;;;;;;;;5122095;28;20353;-69
2023/10/13 10:51:57;;;;;;;;;;;;;;;;;;5136938;27;19919;-68
2023/10/13 10:54:30;;;;;;;;;;;;;;;;;;5149516;27;19907;-68
2023/10/13 10:56:55;;;;;;;;;;;;;;;;;;5143861;27;19960;-69
2023/10/13 10:59:25;;;;;;;;;;;;;;;;;;5135470;27;19911;-68
2023/10/13 11:01:51;;;;;;;;;;;;;;;;;;5118201;27;20006;-67
2023/10/13 11:06:49;;;;;;;;;;;;;;;;;;5116234;28;19984;-69
2023/10/13 11:09:52;;;;;;;;;;;;;;;;;;5128968;27;19907;-69
2023/10/13 11:12:13;;;;;;;;;;;;;;;;;;5131637;27;19908;-68
2023/10/13 11:14:39;;;;;;;;;;;;;;;;;;5125522;27;19912;-68
2023/10/13 11:17:16;;;;;;;;;;;;;;;;;;5114976;27;19958;-67
2023/10/13 11:19:44;;;;;;;;;;;;;;;;;;5135615;27;19914;-68
2023/10/13 11:22:10;;;;;;;;;;;;;;;;;;5135859;27;20006;-67
2023/10/13 11:24:36;;;;;;;;;;;;;;;;;;5134272;27;19973;-67
2023/10/13 11:27:02;;;;;;;;;;;;;;;;;;5133674;27;20367;-66
2023/10/13 11:29:28;;;;;;;;;;;;;;;;;;5116231;28;19977;-66
2023/10/13 11:32:00;;;;;;;;;;;;;;;;;;5115998;28;20360;-67
2023/10/13 11:34:39;;;;;;;;;;;;;;;;;;5115883;27;19918;-68
2023/10/13 11:37:28;;;;;;;;;;;;;;;;;;5117042;27;19918;-67
2023/10/13 11:39:51;;;;;;;;;;;;;;;;;;5113798;28;20003;-67
2023/10/13 11:42:17;;;;;;;;;;;;;;;;;;5109085;27;20044;-68
2023/10/13 11:44:43;;;;;;;;;;;;;;;;;;5118150;27;20413;-68
2023/10/13 11:49:58;;;;;;;;;;;;;;;;;;5092864;27;19908;-67
2023/10/13 11:52:26;;;;;;;;;;;;;;;;;;5135628;27;19907;-67
2023/10/13 11:54:52;;;;;;;;;;;;;;;;;;5126171;27;19911;-68
2023/10/13 11:57:19;;;;;;;;;;;;;;;;;;5113512;27;19915;-68
2023/10/13 11:59:52;;;;;;;;;;;;;;;;;;5128786;27;19912;-78
2023/10/13 12:04:59;;;;;;;;;;;;;;;;;;5112142;28;19919;-77
2023/10/13 12:08:19;;;;;;;;;;;;;;;;;;5111268;28;19912;-77
2023/10/13 12:10:49;;;;;;;;;;;;;;;;;;5103450;28;19907;-78
2023/10/13 12:13:08;;;;;;;;;;;;;;;;;;5111639;28;19908;-78
2023/10/13 12:15:46;;;;;;;;;;;;;;;;;;5112943;28;19908;-78
2023/10/13 12:18:14;;;;;;;;;;;;;;;;;;5110785;28;20379;-78
2023/10/13 12:20:45;;;;;;;;;;;;;;;;;;5110379;28;19912;-78
2023/10/13 12:23:15;;;;;;;;;;;;;;;;;;5110540;28;19915;-78
2023/10/13 12:25:54;;;;;;;;;;;;;;;;;;5111816;28;19923;-78
2023/10/13 12:28:22;;;;;;;;;;;;;;;;;;5112231;28;19911;-78
2023/10/13 12:30:48;;;;;;;;;;;;;;;;;;5111316;28;19908;-78
2023/10/13 12:33:16;;;;;;;;;;;;;;;;;;5110878;28;20345;-78
2023/10/13 12:52:15;;;;;;;;;;;;;;;;;;5112643;28;19972;-78
2023/10/13 12:54:46;;;;;;;;;;;;;;;;;;5114766;28;20374;-78
2023/10/13 12:57:12;;;;;;;;;;;;;;;;;;5115093;28;19907;-76
2023/10/13 12:59:38;;;;;;;;;;;;;;;;;;5114604;28;19910;-76
2023/10/13 13:02:07;;;;;;;;;;;;;;;;;;5115000;28;19918;-76
2023/10/13 13:04:36;;;;;;;;;;;;;;;;;;5115035;28;19946;-76
2023/10/13 13:07:03;;;;;;;;;;;;;;;;;;5114609;28;19912;-77
2023/10/13 13:09:30;;;;;;;;;;;;;;;;;;5114745;28;19904;-76
2023/10/13 13:11:59;;;;;;;;;;;;;;;;;;5114082;28;20582;-76
2023/10/13 13:14:34;;;;;;;;;;;;;;;;;;5114621;28;19938;-78
2023/10/13 13:17:04;;;;;;;;;;;;;;;;;;5113908;28;19903;-78
2023/10/13 13:19:30;;;;;;;;;;;;;;;;;;5114051;28;19914;-78
2023/10/13 13:21:56;;;;;;;;;;;;;;;;;;5114423;28;19904;-76
2023/10/13 13:24:23;;;;;;;;;;;;;;;;;;5114553;28;19907;-78
2023/10/13 13:26:54;;;;;;;;;;;;;;;;;;5114064;28;19912;-78
2023/10/13 13:29:20;;;;;;;;;;;;;;;;;;5114724;28;19991;-76
2023/10/13 13:31:46;;;;;;;;;;;;;;;;;;5113271;28;19903;-78
2023/10/13 13:34:12;;;;;;;;;;;;;;;;;;5093673;28;19904;-78
2023/10/13 13:36:38;;;;;;;;;;;;;;;;;;5112229;28;20305;-79
2023/10/13 13:39:05;;;;;;;;;;;;;;;;;;5112892;28;20400;-78
2023/10/13 13:41:33;;;;;;;;;;;;;;;;;;5111927;28;19910;-77
2023/10/13 13:44:13;;;;;;;;;;;;;;;;;;5112562;28;20390;-77
2023/10/13 13:46:41;;;;;;;;;;;;;;;;;;5112899;28;20359;-78
2023/10/13 13:49:07;;;;;;;;;;;;;;;;;;5113808;28;19904;-78
2023/10/13 13:51:34;;;;;;;;;;;;;;;;;;5114169;28;20355;-78
2023/10/13 13:54:00;;;;;;;;;;;;;;;;;;5113688;28;19914;-78
2023/10/13 13:56:30;;;;;;;;;;;;;;;;;;5114076;28;19904;-77
2023/10/13 13:58:56;;;;;;;;;;;;;;;;;;5114221;28;19904;-77
2023/10/13 14:01:25;;;;;;;;;;;;;;;;;;5113985;28;19904;-77
2023/10/13 14:03:51;;;;;;;;;;;;;;;;;;5114073;28;19911;-77
2023/10/13 14:06:23;;;;;;;;;;;;;;;;;;5113922;28;19916;-77
2023/10/13 14:08:51;;;;;;;;;;;;;;;;;;5113663;28;20276;-77
2023/10/13 14:12:25;;;;;;;;;;;;;;;;;;5113999;28;19987;-76
2023/10/13 14:14:11;;;;;;;;;;;;;;;;;;5113698;28;19903;-77
2023/10/13 14:16:37;;;;;;;;;;;;;;;;;;5113606;28;19904;-76
2023/10/13 14:19:07;;;;;;;;;;;;;;;;;;5113980;28;19911;-77
2023/10/13 14:21:34;;;;;;;;;;;;;;;;;;5113907;28;20321;-77
2023/10/13 14:24:01;;;;;;;;;;;;;;;;;;5111718;28;20347;-77
2023/10/13 14:26:27;;;;;;;;;;;;;;;;;;5111726;28;19911;-77
2023/10/13 14:29:09;;;;;;;;;;;;;;;;;;5111902;28;19903;-77
2023/10/13 14:31:37;;;;;;;;;;;;;;;;;;5111921;28;19986;-77
2023/10/13 14:34:03;;;;;;;;;;;;;;;;;;5117090;28;20305;-77
2023/10/13 14:36:29;;;;;;;;;;;;;;;;;;5116788;28;19903;-77
2023/10/13 14:38:55;;;;;;;;;;;;;;;;;;5117238;28;19904;-77
2023/10/13 14:41:21;;;;;;;;;;;;;;;;;;5117514;28;19926;-77
2023/10/13 14:43:50;;;;;;;;;;;;;;;;;;5117113;28;19903;-77
2023/10/13 14:46:16;;;;;;;;;;;;;;;;;;5117196;28;19916;-77
2023/10/13 14:48:42;;;;;;;;;;;;;;;;;;5117420;28;19910;-77
2023/10/13 14:51:08;;;;;;;;;;;;;;;;;;5116844;28;20408;-77
2023/10/13 14:53:37;;;;;;;;;;;;;;;;;;5117794;28;20363;-76
2023/10/13 14:56:05;;;;;;;;;;;;;;;;;;5117263;28;19904;-77
2023/10/13 14:58:31;;;;;;;;;;;;;;;;;;5116799;28;19912;-77
2023/10/13 15:00:58;;;;;;;;;;;;;;;;;;5117183;28;19904;-77
2023/10/13 15:03:24;;;;;;;;;;;;;;;;;;5117086;28;19904;-77
2023/10/13 15:05:50;;;;;;;;;;;;;;;;;;5116550;28;19916;-77
2023/10/13 15:08:18;;;;;;;;;;;;;;;;;;5116592;28;19903;-77
2023/10/13 15:10:44;;;;;;;;;;;;;;;;;;5116949;28;19904;-76
2023/10/13 15:13:10;;;;;;;;;;;;;;;;;;5116457;28;20370;-76
2023/10/13 15:15:36;;;;;;;;;;;;;;;;;;5116825;28;19904;-77
2023/10/13 15:18:02;;;;;;;;;;;;;;;;;;5116885;28;19911;-77
2023/10/13 15:20:28;;;;;;;;;;;;;;;;;;5116428;28;19911;-76
2023/10/13 15:22:59;;;;;;;;;;;;;;;;;;5116804;28;19930;-76
2023/10/13 15:25:28;;;;;;;;;;;;;;;;;;5116528;28;20240;-76
2023/10/13 15:27:58;;;;;;;;;;;;;;;;;;5116615;28;19948;-75
2023/10/13 15:30:26;;;;;;;;;;;;;;;;;;5116731;28;19903;-76
2023/10/13 15:32:53;;;;;;;;;;;;;;;;;;5116439;28;19910;-76
2023/10/13 15:35:19;;;;;;;;;;;;;;;;;;5116547;28;20359;-76
2023/10/13 15:37:48;;;;;;;;;;;;;;;;;;5116549;28;19956;-76
2023/10/13 15:40:17;;;;;;;;;;;;;;;;;;5116043;28;19910;-76
2023/10/13 15:42:44;;;;;;;;;;;;;;;;;;5116168;28;19910;-76
2023/10/13 15:45:16;;;;;;;;;;;;;;;;;;5116074;28;19965;-76
2023/10/13 15:47:45;;;;;;;;;;;;;;;;;;5116015;28;19934;-75
2023/10/13 15:50:15;;;;;;;;;;;;;;;;;;5116240;28;19943;-75
2023/10/13 15:52:45;;;;;;;;;;;;;;;;;;5116185;28;20367;-75
2023/10/13 15:55:13;;;;;;;;;;;;;;;;;;5115792;28;19932;-76
2023/10/13 15:57:39;;;;;;;;;;;;;;;;;;5116029;28;20333;-74
2023/10/13 16:00:22;;;;;;;;;;;;;;;;;;5116456;28;19910;-76
2023/10/13 16:02:50;;;;;;;;;;;;;;;;;;5115618;28;19903;-74
2023/10/13 16:05:16;;;;;;;;;;;;;;;;;;5116129;28;19914;-75
2023/10/13 16:07:42;;;;;;;;;;;;;;;;;;5115460;28;19909;-75
2023/10/13 16:10:11;;;;;;;;;;;;;;;;;;5115923;28;19996;-75
2023/10/13 16:12:37;;;;;;;;;;;;;;;;;;5115751;28;19903;-75
2023/10/13 16:15:08;;;;;;;;;;;;;;;;;;5115325;28;19911;-75
2023/10/13 16:17:34;;;;;;;;;;;;;;;;;;5115963;28;19903;-75
2023/10/13 16:19:59;;;;;;;;;;;;;;;;;;5115638;28;19911;-75
2023/10/13 16:22:25;;;;;;;;;;;;;;;;;;5115181;28;19950;-75
2023/10/13 16:24:52;;;;;;;;;;;;;;;;;;5115467;28;19903;-75
2023/10/13 16:27:19;;;;;;;;;;;;;;;;;;5115358;28;19912;-75
2023/10/13 16:29:45;;;;;;;;;;;;;;;;;;5115158;28;19904;-75
2023/10/13 16:32:12;;;;;;;;;;;;;;;;;;5115389;28;19911;-75
2023/10/13 16:34:38;;;;;;;;;;;;;;;;;;5115389;28;19908;-75
2023/10/13 16:37:05;;;;;;;;;;;;;;;;;;5115053;28;20252;-75
2023/10/13 16:39:30;;;;;;;;;;;;;;;;;;5115207;28;20275;-75
2023/10/13 16:41:56;;;;;;;;;;;;;;;;;;5115203;28;19904;-76
2023/10/13 16:44:25;;;;;;;;;;;;;;;;;;5114763;28;20355;-75
2023/10/13 16:46:51;;;;;;;;;;;;;;;;;;5114868;28;19916;-75
2023/10/13 16:49:17;;;;;;;;;;;;;;;;;;5114968;28;19908;-75
2023/10/13 16:51:44;;;;;;;;;;;;;;;;;;5114512;28;19903;-75
2023/10/13 16:54:10;;;;;;;;;;;;;;;;;;5115126;28;19908;-75
2023/10/13 16:56:38;;;;;;;;;;;;;;;;;;5114595;28;20271;-74
2023/10/13 16:59:07;;;;;;;;;;;;;;;;;;5114558;28;19903;-75
2023/10/13 17:01:33;;;;;;;;;;;;;;;;;;5114904;28;19911;-74
2023/10/13 17:03:59;;;;;;;;;;;;;;;;;;5114438;28;19903;-75
2023/10/13 17:06:25;;;;;;;;;;;;;;;;;;5114635;28;19918;-75
2023/10/13 17:08:52;;;;;;;;;;;;;;;;;;5114753;28;19939;-76
2023/10/13 17:11:24;;;;;;;;;;;;;;;;;;5114357;28;19904;-76
2023/10/13 17:13:50;;;;;;;;;;;;;;;;;;5114694;28;19908;-75
2023/10/13 17:16:17;;;;;;;;;;;;;;;;;;5114689;28;19904;-75
2023/10/13 17:18:43;;;;;;;;;;;;;;;;;;5114250;28;19903;-75
2023/10/13 17:21:09;;;;;;;;;;;;;;;;;;5114494;28;19911;-75
2023/10/13 17:23:35;;;;;;;;;;;;;;;;;;5114520;28;19904;-75
2023/10/13 17:26:01;;;;;;;;;;;;;;;;;;5113986;28;20006;-75
2023/10/13 17:28:27;;;;;;;;;;;;;;;;;;5114274;28;19904;-75
2023/10/13 17:30:53;;;;;;;;;;;;;;;;;;5114391;28;19926;-75
2023/10/13 17:33:18;;;;;;;;;;;;;;;;;;5114025;28;19998;-75
2023/10/13 17:35:45;;;;;;;;;;;;;;;;;;5114336;28;19911;-75
2023/10/13 17:38:11;;;;;;;;;;;;;;;;;;5114372;28;19904;-75
2023/10/13 17:40:38;;;;;;;;;;;;;;;;;;5113416;28;20408;-74
2023/10/13 17:43:04;;;;;;;;;;;;;;;;;;5114225;28;19908;-73
2023/10/13 17:45:30;;;;;;;;;;;;;;;;;;5113948;28;19935;-73
2023/10/13 17:47:56;;;;;;;;;;;;;;;;;;5113726;28;19907;-73
2023/10/13 17:50:22;;;;;;;;;;;;;;;;;;5114211;28;19904;-73
2023/10/13 17:53:01;;;;;;;;;;;;;;;;;;5091474;27;19923;-75
2023/10/13 17:55:27;;;;;;;;;;;;;;;;;;5091406;28;19965;-74
2023/10/13 17:57:53;;;;;;;;;;;;;;;;;;5089915;28;19909;-74
2023/10/13 18:00:22;;;;;;;;;;;;;;;;;;5090812;28;19908;-75
2023/10/13 18:02:51;;;;;;;;;;;;;;;;;;5091057;28;20313;-74
2023/10/13 18:05:18;;;;;;;;;;;;;;;;;;5089860;28;19909;-74
2023/10/13 18:07:44;;;;;;;;;;;;;;;;;;5090705;28;19916;-74
2023/10/13 18:10:12;;;;;;;;;;;;;;;;;;5091065;28;19912;-74
2023/10/13 18:12:39;;;;;;;;;;;;;;;;;;5091101;28;20292;-73
2023/10/13 18:15:05;;;;;;;;;;;;;;;;;;5090635;28;20291;-74
2023/10/13 18:17:31;;;;;;;;;;;;;;;;;;5091193;28;19909;-74
2023/10/13 18:23:39;;;;;;;;;;;;;;;;;;5092093;27;20384;-75
2023/10/13 18:26:05;;;;;;;;;;;;;;;;;;5091371;28;19918;-75
2023/10/13 18:29:44;;;;;;;;;;;;;;;;;;5091184;27;20394;-75
2023/10/13 18:32:10;;;;;;;;;;;;;;;;;;5091373;28;19912;-75
2023/10/13 18:34:37;;;;;;;;;;;;;;;;;;5091286;28;19999;-75
2023/10/13 18:37:03;;;;;;;;;;;;;;;;;;5090808;28;19908;-75
2023/10/13 18:39:35;;;;;;;;;;;;;;;;;;5091171;28;19999;-75
2023/10/13 18:42:01;;;;;;;;;;;;;;;;;;5091179;28;20291;-75
2023/10/13 18:46:49;;;;;;;;;;;;;;;;;;5111778;27;19922;-75
2023/10/13 18:49:15;;;;;;;;;;;;;;;;;;5111261;28;19919;-75
2023/10/13 18:51:42;;;;;;;;;;;;;;;;;;5111686;28;20368;-75
2023/10/13 18:54:08;;;;;;;;;;;;;;;;;;5111642;28;19935;-74
2023/10/13 18:56:34;;;;;;;;;;;;;;;;;;5109940;28;19943;-74
2023/10/13 18:59:02;;;;;;;;;;;;;;;;;;5111475;28;19961;-75
2023/10/13 19:01:29;;;;;;;;;;;;;;;;;;5111558;28;20345;-75
2023/10/13 19:03:55;;;;;;;;;;;;;;;;;;5111277;28;20284;-74
2023/10/13 19:06:20;;;;;;;;;;;;;;;;;;5111470;28;19923;-74
2023/10/13 19:08:47;;;;;;;;;;;;;;;;;;5111311;28;20352;-74
2023/10/13 19:11:12;;;;;;;;;;;;;;;;;;5110901;28;19908;-74
2023/10/13 19:13:38;;;;;;;;;;;;;;;;;;5110003;28;19912;-73
2023/10/13 19:17:54;;;;;;;;;;;;;;;;;;5111548;27;19915;-75
2023/10/13 19:20:20;;;;;;;;;;;;;;;;;;5111779;28;20010;-74
2023/10/13 19:22:50;;;;;;;;;;;;;;;;;;5111616;28;19960;-74
2023/10/13 19:25:16;;;;;;;;;;;;;;;;;;5111336;28;20372;-74
2023/10/13 19:27:42;;;;;;;;;;;;;;;;;;5111569;28;19915;-75
2023/10/13 19:30:08;;;;;;;;;;;;;;;;;;5111437;28;19908;-74
2023/10/13 19:32:38;;;;;;;;;;;;;;;;;;5110637;28;19912;-74
2023/10/13 19:35:06;;;;;;;;;;;;;;;;;;5110674;28;19919;-74
2023/10/13 19:37:31;;;;;;;;;;;;;;;;;;5109880;28;19916;-75
2023/10/13 19:41:04;;;;;;;;;;;;;;;;;;5111176;27;19916;-75
2023/10/13 19:44:46;;;;;;;;;;;;;;;;;;5090824;27;19923;-75
2023/10/13 19:47:13;;;;;;;;;;;;;;;;;;5090411;28;19999;-76
2023/10/13 19:50:01;;;;;;;;;;;;;;;;;;5111879;27;19917;-76
2023/10/13 19:52:27;;;;;;;;;;;;;;;;;;5111716;28;20003;-75
2023/10/13 19:54:53;;;;;;;;;;;;;;;;;;5111254;28;20325;-75
2023/10/13 19:57:21;;;;;;;;;;;;;;;;;;5110330;28;19915;-75
2023/10/13 19:59:47;;;;;;;;;;;;;;;;;;5111182;28;19998;-75
2023/10/13 20:02:13;;;;;;;;;;;;;;;;;;5111505;28;19908;-75
2023/10/13 20:04:40;;;;;;;;;;;;;;;;;;5111486;28;19908;-75
2023/10/13 20:07:06;;;;;;;;;;;;;;;;;;5110887;28;19916;-75
2023/10/13 20:11:35;;;;;;;;;;;;;;;;;;5091752;27;19916;-75
2023/10/13 20:14:01;;;;;;;;;;;;;;;;;;5090845;28;19982;-75
2023/10/13 20:16:29;;;;;;;;;;;;;;;;;;5091343;28;20368;-75
2023/10/13 20:18:55;;;;;;;;;;;;;;;;;;5091319;28;19977;-74
2023/10/13 20:21:24;;;;;;;;;;;;;;;;;;5091013;28;20384;-75
2023/10/13 20:23:51;;;;;;;;;;;;;;;;;;5091042;28;19946;-75
2023/10/13 20:26:17;;;;;;;;;;;;;;;;;;5091076;28;19908;-75
2023/10/13 20:28:43;;;;;;;;;;;;;;;;;;5090583;28;19916;-74